Trinity, Florida
Current Conditions -  °F | °C
As of 8:08 AM on Saturday 25 Oct 2014 (Local Time) from KBKV Reporting Station
Haze Haze  
Wind Chill: 49°   Ceiling: Unl
Heat Index: 49°   Visibility: 3mi
Dew Point: 48°   Wind: 0mph
Humidity: 97%   Direction: NA
Pressure: 30.01"   Gusts: NA
Location:  28.2318°N, 82.5991°W
Report Text: KBKV 251208Z AUTO 00000KT 3SM BR CLR 09/09 A3001 RMK AO2 T00940089
Loading
Personal Weather Stations






























Interactive Weather Map
Tropical Storm Tracking
New forecast layout! Learn more

10-Day Weather Forecast

Advertisements
Track Severe Weather on mobile